Time;durP1;ratioP1;P1;durP2;ratioP2;P2;SDS_P1;SDS_P2;PMS_P1;PMS_P2;Temp;Humidity;BMP_temperature;BMP_pressure;BME280_temperature;BME280_humidity;BME280_pressure;Samples;Min_cycle;Max_cycle;Signal;HPM_P1;HPM_P2
2023/08/11 00:01:31;;;;;;;9.10;3.72;;;;;;;;;;5029288;28;20032;-72
2023/08/11 00:03:57;;;;;;;10.25;3.83;;;;;;;;;;5031635;28;20025;-73
2023/08/11 00:06:23;;;;;;;8.65;3.40;;;;;;;;;;5031798;28;20033;-72
2023/08/11 00:08:49;;;;;;;9.18;3.47;;;;;;;;;;5032402;28;20476;-72
2023/08/11 00:11:15;;;;;;;9.57;3.58;;;;;;;;;;5032388;28;20060;-73
2023/08/11 00:13:42;;;;;;;7.80;3.38;;;;;;;;;;5033145;28;20061;-73
2023/08/11 00:16:10;;;;;;;8.75;3.33;;;;;;;;;;5034294;28;20360;-72
2023/08/11 00:18:36;;;;;;;9.32;3.22;;;;;;;;;;5032662;28;20078;-72
2023/08/11 00:21:02;;;;;;;8.70;3.80;;;;;;;;;;5034551;28;20383;-72
2023/08/11 00:23:30;;;;;;;18.02;4.30;;;;;;;;;;5034642;28;20018;-73
2023/08/11 00:25:56;;;;;;;9.23;3.70;;;;;;;;;;5033040;28;20507;-73
2023/08/11 00:28:22;;;;;;;13.30;3.60;;;;;;;;;;5034544;28;20040;-73
2023/08/11 00:30:48;;;;;;;8.52;3.45;;;;;;;;;;5035413;28;20033;-73
2023/08/11 00:33:15;;;;;;;11.82;3.28;;;;;;;;;;5037739;28;20026;-72
2023/08/11 00:35:42;;;;;;;9.70;3.05;;;;;;;;;;5034613;28;20093;-72
2023/08/11 00:38:08;;;;;;;8.52;3.20;;;;;;;;;;5030584;28;20029;-72
2023/08/11 00:40:34;;;;;;;6.45;3.45;;;;;;;;;;5031847;28;20071;-72
2023/08/11 00:43:00;;;;;;;10.23;3.88;;;;;;;;;;5031010;28;20033;-73
2023/08/11 00:45:26;;;;;;;9.30;3.63;;;;;;;;;;5031256;28;20476;-73
2023/08/11 00:47:53;;;;;;;6.90;3.22;;;;;;;;;;5031505;28;20022;-71
2023/08/11 00:50:18;;;;;;;8.88;3.72;;;;;;;;;;5031722;28;20025;-73
2023/08/11 00:52:48;;;;;;;10.07;4.15;;;;;;;;;;5031403;28;20375;-72
2023/08/11 00:55:14;;;;;;;10.95;4.03;;;;;;;;;;5031337;28;20104;-73
2023/08/11 00:57:41;;;;;;;7.60;3.40;;;;;;;;;;5030832;28;20034;-72
2023/08/11 01:00:14;;;;;;;9.88;2.70;;;;;;;;;;5031289;28;20026;-72
2023/08/11 01:02:44;;;;;;;7.13;2.85;;;;;;;;;;5030855;28;20559;-72
2023/08/11 01:05:11;;;;;;;6.18;2.83;;;;;;;;;;5031423;28;20495;-73
2023/08/11 01:07:43;;;;;;;14.23;3.05;;;;;;;;;;5031474;28;20495;-72
2023/08/11 01:10:24;;;;;;;11.63;3.20;;;;;;;;;;5030610;28;20125;-73
2023/08/11 01:12:57;;;;;;;8.85;3.35;;;;;;;;;;5030407;28;20521;-72
2023/08/11 01:15:27;;;;;;;9.73;3.40;;;;;;;;;;5031568;28;20025;-73
2023/08/11 01:17:53;;;;;;;9.40;3.08;;;;;;;;;;5031993;28;20041;-73
2023/08/11 01:20:19;;;;;;;8.48;3.25;;;;;;;;;;5031904;28;20422;-73
2023/08/11 01:22:47;;;;;;;8.30;2.92;;;;;;;;;;5031643;28;20094;-73
2023/08/11 01:25:13;;;;;;;9.65;3.15;;;;;;;;;;5031353;28;20021;-73
2023/08/11 01:27:44;;;;;;;8.93;3.13;;;;;;;;;;5031558;28;20030;-73
2023/08/11 01:30:10;;;;;;;10.68;3.38;;;;;;;;;;5031557;28;20463;-73
2023/08/11 01:32:38;;;;;;;8.02;3.17;;;;;;;;;;5030597;28;20108;-73
2023/08/11 01:35:05;;;;;;;9.68;3.10;;;;;;;;;;5031159;28;20027;-72
2023/08/11 01:37:31;;;;;;;8.15;3.35;;;;;;;;;;5030221;28;20018;-73
2023/08/11 01:39:58;;;;;;;9.02;3.58;;;;;;;;;;5030807;28;20022;-73
2023/08/11 01:42:24;;;;;;;8.95;3.33;;;;;;;;;;5030177;28;20026;-72
2023/08/11 01:44:50;;;;;;;10.98;3.40;;;;;;;;;;5030821;28;20509;-72
2023/08/11 01:47:17;;;;;;;9.88;3.60;;;;;;;;;;5030481;28;20037;-73
2023/08/11 01:49:43;;;;;;;8.48;3.45;;;;;;;;;;5030866;28;20258;-72
2023/08/11 01:52:09;;;;;;;9.63;3.22;;;;;;;;;;5028615;28;20030;-72
2023/08/11 01:54:36;;;;;;;7.53;3.10;;;;;;;;;;5030598;28;20112;-73
2023/08/11 01:57:02;;;;;;;9.98;3.10;;;;;;;;;;5030383;28;20112;-72
2023/08/11 01:59:29;;;;;;;5.95;3.05;;;;;;;;;;5030621;28;20091;-72
2023/08/11 02:01:55;;;;;;;8.32;3.25;;;;;;;;;;5030180;28;20025;-72
2023/08/11 02:04:21;;;;;;;8.77;3.13;;;;;;;;;;5030967;28;20391;-73
2023/08/11 02:06:47;;;;;;;11.55;3.65;;;;;;;;;;5031330;28;20036;-73
2023/08/11 02:09:13;;;;;;;9.32;3.55;;;;;;;;;;5030875;28;20029;-73
2023/08/11 02:11:39;;;;;;;9.20;3.30;;;;;;;;;;5030968;28;20057;-73
2023/08/11 02:14:05;;;;;;;8.50;3.38;;;;;;;;;;5030724;28;20061;-73
2023/08/11 02:16:32;;;;;;;12.20;4.18;;;;;;;;;;5030687;28;20033;-73
2023/08/11 02:18:58;;;;;;;6.45;2.90;;;;;;;;;;5031820;28;20021;-73
2023/08/11 02:21:25;;;;;;;9.10;2.85;;;;;;;;;;5033055;28;20028;-73
2023/08/11 02:23:51;;;;;;;6.40;2.80;;;;;;;;;;5034743;28;20021;-73
2023/08/11 02:26:17;;;;;;;10.32;3.63;;;;;;;;;;5035271;28;20084;-72
2023/08/11 02:28:43;;;;;;;12.63;3.05;;;;;;;;;;5035174;28;20502;-73
2023/08/11 02:31:09;;;;;;;11.25;3.00;;;;;;;;;;5034666;28;20029;-73
2023/08/11 02:33:35;;;;;;;7.88;2.88;;;;;;;;;;5033762;28;20060;-72
2023/08/11 02:36:02;;;;;;;9.93;3.30;;;;;;;;;;5034022;28;20071;-72
2023/08/11 02:38:28;;;;;;;8.77;3.15;;;;;;;;;;5033895;28;20383;-72
2023/08/11 02:40:54;;;;;;;6.82;3.20;;;;;;;;;;5034051;28;20045;-72
2023/08/11 02:43:20;;;;;;;17.40;3.25;;;;;;;;;;5032941;28;20433;-72
2023/08/11 02:45:46;;;;;;;8.02;3.17;;;;;;;;;;5033951;28;20022;-72
2023/08/11 02:48:12;;;;;;;7.38;3.17;;;;;;;;;;5032627;28;20022;-72
2023/08/11 02:50:38;;;;;;;6.03;2.92;;;;;;;;;;5032860;28;20033;-73
2023/08/11 02:53:04;;;;;;;9.07;3.30;;;;;;;;;;5032847;28;20044;-72
2023/08/11 02:55:30;;;;;;;9.57;3.20;;;;;;;;;;5033105;28;20021;-72
2023/08/11 02:57:56;;;;;;;9.52;4.10;;;;;;;;;;5033429;28;20026;-73
2023/08/11 03:00:22;;;;;;;11.20;3.92;;;;;;;;;;5033569;28;20040;-72
2023/08/11 03:02:48;;;;;;;12.05;3.95;;;;;;;;;;5033096;28;20104;-74
2023/08/11 03:05:15;;;;;;;12.85;3.90;;;;;;;;;;5033690;28;20021;-75
2023/08/11 03:07:41;;;;;;;11.88;3.63;;;;;;;;;;5033457;28;20033;-74
2023/08/11 03:10:09;;;;;;;10.25;3.38;;;;;;;;;;5033033;28;20029;-74
2023/08/11 03:12:35;;;;;;;10.63;3.50;;;;;;;;;;5032835;28;20075;-74
2023/08/11 03:15:04;;;;;;;13.25;4.10;;;;;;;;;;5033909;28;20022;-73
2023/08/11 03:17:30;;;;;;;10.88;4.13;;;;;;;;;;5034049;28;20412;-73
2023/08/11 03:19:56;;;;;;;13.07;4.15;;;;;;;;;;5033692;28;20032;-74
2023/08/11 03:22:22;;;;;;;13.50;4.60;;;;;;;;;;5036988;28;20335;-76
2023/08/11 03:24:48;;;;;;;12.27;4.00;;;;;;;;;;5039355;28;20037;-73
2023/08/11 03:27:17;;;;;;;15.77;4.30;;;;;;;;;;5036242;28;20025;-74
2023/08/11 03:29:44;;;;;;;8.93;3.50;;;;;;;;;;5036526;28;20029;-74
2023/08/11 03:32:10;;;;;;;12.48;3.85;;;;;;;;;;5033688;28;20053;-74
2023/08/11 03:34:37;;;;;;;15.93;4.13;;;;;;;;;;5037138;28;20025;-74
2023/08/11 03:37:03;;;;;;;11.18;3.70;;;;;;;;;;5036195;28;20042;-74
2023/08/11 03:39:29;;;;;;;9.90;3.97;;;;;;;;;;5037358;28;20439;-76
2023/08/11 03:41:56;;;;;;;10.23;4.10;;;;;;;;;;5034427;28;20033;-72
2023/08/11 03:44:22;;;;;;;9.23;3.88;;;;;;;;;;5032828;28;20017;-73
2023/08/11 03:46:48;;;;;;;12.15;4.22;;;;;;;;;;5032819;28;20105;-71
2023/08/11 03:49:14;;;;;;;10.00;4.40;;;;;;;;;;5032166;28;20438;-72
2023/08/11 03:51:40;;;;;;;11.23;5.43;;;;;;;;;;5032520;28;20040;-72
2023/08/11 03:54:06;;;;;;;12.45;4.38;;;;;;;;;;5031926;28;20048;-72
2023/08/11 03:56:32;;;;;;;13.15;4.40;;;;;;;;;;5032666;28;20452;-71
2023/08/11 03:58:58;;;;;;;12.70;3.90;;;;;;;;;;5032386;28;20036;-72
2023/08/11 04:01:24;;;;;;;9.55;3.78;;;;;;;;;;5032030;28;20032;-72
2023/08/11 04:03:50;;;;;;;12.15;4.15;;;;;;;;;;5031684;28;20100;-73
2023/08/11 04:06:17;;;;;;;13.48;4.57;;;;;;;;;;5032265;28;20032;-71
2023/08/11 04:08:44;;;;;;;13.15;4.63;;;;;;;;;;5032329;28;20384;-72
2023/08/11 04:11:11;;;;;;;13.25;4.43;;;;;;;;;;5032407;28;20048;-73
2023/08/11 04:13:37;;;;;;;13.57;4.30;;;;;;;;;;5031587;28;20037;-73
2023/08/11 04:16:03;;;;;;;10.10;4.20;;;;;;;;;;5031803;28;20029;-73
2023/08/11 04:18:29;;;;;;;11.57;4.07;;;;;;;;;;5033101;28;20028;-72
2023/08/11 04:20:55;;;;;;;10.45;3.75;;;;;;;;;;5033345;28;20104;-72
2023/08/11 04:23:21;;;;;;;10.93;4.20;;;;;;;;;;5032854;28;20024;-72
2023/08/11 04:25:47;;;;;;;13.40;4.28;;;;;;;;;;5033229;28;20122;-72
2023/08/11 04:28:13;;;;;;;11.20;3.95;;;;;;;;;;5033148;28;20032;-72
2023/08/11 04:30:39;;;;;;;13.27;3.80;;;;;;;;;;5033790;28;20113;-73
2023/08/11 04:33:05;;;;;;;11.18;4.50;;;;;;;;;;5033453;28;20032;-72
2023/08/11 04:35:32;;;;;;;9.30;4.18;;;;;;;;;;5035606;28;20029;-74
2023/08/11 04:37:59;;;;;;;13.32;4.13;;;;;;;;;;5033613;28;20321;-74
2023/08/11 04:40:25;;;;;;;13.55;4.20;;;;;;;;;;5032961;28;20036;-73
2023/08/11 04:42:50;;;;;;;10.05;4.45;;;;;;;;;;5032864;28;20029;-73
2023/08/11 04:45:16;;;;;;;11.98;3.95;;;;;;;;;;5030292;28;20029;-77
2023/08/11 04:47:43;;;;;;;11.48;3.90;;;;;;;;;;5033598;28;20029;-74
2023/08/11 04:50:09;;;;;;;8.60;3.83;;;;;;;;;;5033955;28;20021;-75
2023/08/11 04:52:35;;;;;;;12.85;3.60;;;;;;;;;;5033685;28;20043;-77
2023/08/11 04:55:01;;;;;;;12.70;4.00;;;;;;;;;;5046836;28;20036;-75
2023/08/11 04:57:28;;;;;;;16.60;4.03;;;;;;;;;;5032759;28;20029;-72
2023/08/11 04:59:54;;;;;;;12.85;4.15;;;;;;;;;;5032442;28;20041;-72
2023/08/11 05:02:20;;;;;;;12.43;4.15;;;;;;;;;;5033102;28;20079;-73
2023/08/11 05:04:46;;;;;;;11.85;4.25;;;;;;;;;;5035970;28;20402;-74
2023/08/11 05:07:12;;;;;;;11.73;4.22;;;;;;;;;;5035391;28;20017;-74
2023/08/11 05:09:39;;;;;;;12.65;3.55;;;;;;;;;;5035865;28;20047;-73
2023/08/11 05:12:05;;;;;;;13.82;4.22;;;;;;;;;;5034192;28;20033;-73
2023/08/11 05:14:31;;;;;;;10.20;3.55;;;;;;;;;;5032060;28;20041;-72
2023/08/11 05:16:57;;;;;;;10.48;3.97;;;;;;;;;;5031892;28;20483;-74
2023/08/11 05:19:25;;;;;;;11.38;3.80;;;;;;;;;;5032599;28;20352;-75
2023/08/11 05:21:51;;;;;;;11.00;3.90;;;;;;;;;;5031711;28;20403;-72
2023/08/11 05:24:17;;;;;;;19.75;4.95;;;;;;;;;;5032033;28;20021;-74
2023/08/11 05:26:43;;;;;;;15.75;5.13;;;;;;;;;;5031932;28;20040;-73
2023/08/11 05:29:09;;;;;;;11.88;4.30;;;;;;;;;;5033612;28;20075;-71
2023/08/11 05:31:35;;;;;;;13.98;4.00;;;;;;;;;;5033202;28;20380;-74
2023/08/11 05:34:01;;;;;;;13.82;3.80;;;;;;;;;;5030810;28;20025;-76
2023/08/11 05:36:27;;;;;;;15.32;3.53;;;;;;;;;;5032384;28;20030;-75
2023/08/11 05:38:53;;;;;;;14.50;4.30;;;;;;;;;;5035196;28;20021;-75
2023/08/11 05:41:19;;;;;;;19.25;4.22;;;;;;;;;;5033367;28;20032;-76
2023/08/11 05:43:45;;;;;;;16.13;4.18;;;;;;;;;;5031693;28;20112;-75
2023/08/11 05:46:11;;;;;;;11.45;3.60;;;;;;;;;;5035101;28;20060;-76
2023/08/11 05:48:37;;;;;;;12.88;4.38;;;;;;;;;;5036711;28;20026;-81
2023/08/11 05:51:04;;;;;;;14.23;4.35;;;;;;;;;;5033586;28;20068;-74
2023/08/11 05:53:30;;;;;;;17.35;3.83;;;;;;;;;;5033070;28;20390;-76
2023/08/11 05:55:56;;;;;;;11.45;3.67;;;;;;;;;;5034735;28;20033;-75
2023/08/11 05:58:22;;;;;;;9.82;3.65;;;;;;;;;;5037019;28;20136;-75
2023/08/11 06:00:48;;;;;;;12.38;4.00;;;;;;;;;;5030895;28;20145;-75
2023/08/11 06:03:16;;;;;;;13.43;3.35;;;;;;;;;;5034871;28;20025;-75
2023/08/11 06:05:42;;;;;;;14.90;3.80;;;;;;;;;;5036142;28;20479;-74
2023/08/11 06:08:08;;;;;;;13.27;3.75;;;;;;;;;;5037666;28;20026;-73
2023/08/11 06:10:34;;;;;;;14.75;4.00;;;;;;;;;;5036573;28;20026;-73
2023/08/11 06:13:00;;;;;;;12.85;3.58;;;;;;;;;;5038482;28;20081;-76
2023/08/11 06:15:26;;;;;;;9.68;3.55;;;;;;;;;;5042876;28;20025;-73
2023/08/11 06:17:53;;;;;;;12.20;4.18;;;;;;;;;;5038316;28;20143;-74
2023/08/11 06:20:19;;;;;;;15.15;3.70;;;;;;;;;;5035272;28;20037;-73
2023/08/11 06:22:46;;;;;;;9.90;3.80;;;;;;;;;;5035399;28;20036;-72
2023/08/11 06:25:15;;;;;;;12.60;4.03;;;;;;;;;;5036637;28;20102;-73
2023/08/11 06:27:41;;;;;;;14.75;3.70;;;;;;;;;;5036168;28;20104;-73
2023/08/11 06:30:07;;;;;;;11.55;3.90;;;;;;;;;;5035566;28;20179;-72
2023/08/11 06:32:33;;;;;;;14.07;3.60;;;;;;;;;;5034707;28;20028;-73
2023/08/11 06:34:59;;;;;;;21.65;4.60;;;;;;;;;;5034993;28;20049;-73
2023/08/11 06:37:25;;;;;;;14.32;4.72;;;;;;;;;;5035109;28;20068;-73
2023/08/11 06:39:54;;;;;;;22.17;4.55;;;;;;;;;;5035066;28;20022;-73
2023/08/11 06:42:20;;;;;;;15.90;4.78;;;;;;;;;;5035669;28;20045;-73
2023/08/11 06:44:46;;;;;;;15.80;4.50;;;;;;;;;;5036074;28;20379;-72
2023/08/11 06:47:12;;;;;;;12.30;4.07;;;;;;;;;;5035886;28;20025;-73
2023/08/11 06:49:38;;;;;;;10.88;3.58;;;;;;;;;;5034763;28;20051;-73
2023/08/11 06:52:04;;;;;;;24.65;4.32;;;;;;;;;;5034850;28;20746;-74
2023/08/11 06:54:30;;;;;;;20.67;3.50;;;;;;;;;;5034796;28;20040;-73
2023/08/11 06:56:56;;;;;;;13.10;3.28;;;;;;;;;;5035726;28;20518;-72
2023/08/11 06:59:22;;;;;;;13.60;3.58;;;;;;;;;;5038732;28;20025;-73
2023/08/11 07:01:48;;;;;;;19.40;4.43;;;;;;;;;;5035224;28;20037;-73
2023/08/11 07:04:14;;;;;;;13.77;3.72;;;;;;;;;;5035807;28;20387;-72
2023/08/11 07:06:40;;;;;;;17.88;3.80;;;;;;;;;;5037930;28;20025;-71
2023/08/11 07:09:06;;;;;;;13.57;3.35;;;;;;;;;;5034574;28;20043;-72
2023/08/11 07:11:32;;;;;;;13.75;3.60;;;;;;;;;;5034426;28;20056;-72
2023/08/11 07:13:58;;;;;;;17.65;3.63;;;;;;;;;;5034406;28;20091;-72
2023/08/11 07:16:24;;;;;;;12.25;3.05;;;;;;;;;;5034496;28;20022;-72
2023/08/11 07:18:50;;;;;;;13.65;3.97;;;;;;;;;;5034087;28;20022;-72
2023/08/11 07:21:16;;;;;;;10.73;3.33;;;;;;;;;;5034230;28;20434;-73
2023/08/11 07:23:42;;;;;;;17.15;4.95;;;;;;;;;;5034182;28;20101;-73
2023/08/11 07:26:08;;;;;;;14.85;4.15;;;;;;;;;;5034321;28;20029;-73
2023/08/11 07:28:34;;;;;;;12.18;3.15;;;;;;;;;;5032669;28;20029;-74
2023/08/11 07:31:00;;;;;;;10.77;3.42;;;;;;;;;;5033970;28;20026;-76
2023/08/11 07:33:26;;;;;;;13.82;3.75;;;;;;;;;;5032950;28;20150;-74
2023/08/11 07:35:52;;;;;;;14.40;3.80;;;;;;;;;;5033872;28;20496;-74
2023/08/11 07:38:20;;;;;;;10.30;3.42;;;;;;;;;;5034132;28;20029;-74
2023/08/11 07:40:46;;;;;;;17.02;4.35;;;;;;;;;;5034067;28;20025;-74
2023/08/11 07:43:12;;;;;;;13.32;3.72;;;;;;;;;;5033486;28;20059;-74
2023/08/11 07:45:38;;;;;;;13.80;4.07;;;;;;;;;;5033970;28;20029;-73
2023/08/11 07:48:04;;;;;;;14.48;3.83;;;;;;;;;;5034059;28;20048;-73
2023/08/11 07:50:30;;;;;;;9.88;3.67;;;;;;;;;;5034501;28;20112;-73
2023/08/11 07:52:56;;;;;;;15.70;3.92;;;;;;;;;;5033075;28;20033;-73
2023/08/11 07:55:22;;;;;;;17.00;3.47;;;;;;;;;;5033572;28;20025;-72
2023/08/11 07:57:48;;;;;;;19.20;3.97;;;;;;;;;;5033148;28;20606;-73
2023/08/11 08:00:16;;;;;;;9.35;3.60;;;;;;;;;;5033322;28;20029;-74
2023/08/11 08:02:42;;;;;;;16.27;4.38;;;;;;;;;;5032718;28;20612;-73
2023/08/11 08:05:09;;;;;;;13.45;4.10;;;;;;;;;;5033332;28;20712;-73
2023/08/11 08:07:35;;;;;;;9.50;3.97;;;;;;;;;;5035431;28;20039;-73
2023/08/11 08:10:01;;;;;;;9.27;3.85;;;;;;;;;;5040098;28;20104;-74
2023/08/11 08:12:27;;;;;;;15.18;4.72;;;;;;;;;;5033096;28;20030;-73
2023/08/11 08:14:53;;;;;;;12.60;3.78;;;;;;;;;;5034451;28;20053;-73
2023/08/11 08:17:19;;;;;;;10.25;5.03;;;;;;;;;;5033943;28;20382;-73
2023/08/11 08:19:45;;;;;;;15.82;4.55;;;;;;;;;;5032698;28;20082;-74
2023/08/11 08:22:11;;;;;;;14.90;4.60;;;;;;;;;;5031556;28;20026;-75
2023/08/11 08:24:37;;;;;;;16.85;4.15;;;;;;;;;;5033035;28;20447;-73
2023/08/11 08:27:03;;;;;;;11.02;4.32;;;;;;;;;;5033189;28;20029;-75
2023/08/11 08:29:29;;;;;;;16.38;4.53;;;;;;;;;;5033051;28;20025;-73
2023/08/11 08:31:55;;;;;;;11.68;4.43;;;;;;;;;;5032915;28;20030;-73
2023/08/11 08:34:21;;;;;;;13.38;4.72;;;;;;;;;;5033096;28;20033;-72
2023/08/11 08:36:47;;;;;;;12.23;4.93;;;;;;;;;;5033352;28;20133;-73
2023/08/11 08:39:13;;;;;;;15.15;4.88;;;;;;;;;;5032748;28;20025;-73
2023/08/11 08:41:39;;;;;;;11.77;4.35;;;;;;;;;;5032595;28;20026;-72
2023/08/11 08:44:05;;;;;;;12.15;4.32;;;;;;;;;;5032414;28;20033;-74
2023/08/11 08:46:31;;;;;;;10.80;4.65;;;;;;;;;;5032620;28;20021;-74
2023/08/11 08:49:21;;;;;;;12.45;5.00;;;;;;;;;;5032499;28;20060;-74
2023/08/11 08:51:47;;;;;;;22.00;5.22;;;;;;;;;;5032387;28;20140;-74
2023/08/11 08:54:13;;;;;;;14.70;4.15;;;;;;;;;;5034249;28;20029;-79
2023/08/11 08:56:40;;;;;;;11.07;4.63;;;;;;;;;;5033120;28;20446;-76
2023/08/11 08:59:06;;;;;;;13.23;4.80;;;;;;;;;;5045773;28;20029;-74
2023/08/11 09:01:34;;;;;;;9.85;3.65;;;;;;;;;;5049017;28;20021;-76
2023/08/11 09:04:00;;;;;;;10.98;4.40;;;;;;;;;;5031519;28;20025;-75
2023/08/11 09:06:27;;;;;;;7.93;3.40;;;;;;;;;;5031839;28;20030;-76
2023/08/11 09:08:53;;;;;;;10.93;4.25;;;;;;;;;;5032494;28;20025;-75
2023/08/11 09:11:20;;;;;;;9.20;4.18;;;;;;;;;;5032249;28;20040;-77
2023/08/11 09:13:46;;;;;;;12.43;4.40;;;;;;;;;;5035660;28;20029;-74
2023/08/11 09:16:12;;;;;;;10.80;4.22;;;;;;;;;;5050550;28;20036;-74
2023/08/11 09:18:39;;;;;;;11.60;4.40;;;;;;;;;;5032172;28;20032;-75
2023/08/11 09:21:05;;;;;;;12.55;4.28;;;;;;;;;;5032015;28;20013;-74
2023/08/11 09:23:32;;;;;;;11.18;4.20;;;;;;;;;;5032519;28;20121;-75
2023/08/11 09:25:58;;;;;;;10.38;3.85;;;;;;;;;;5032499;28;20049;-71
2023/08/11 09:28:25;;;;;;;13.57;4.85;;;;;;;;;;5033016;28;20020;-73
2023/08/11 09:30:51;;;;;;;11.27;5.13;;;;;;;;;;5030951;28;20104;-72
2023/08/11 09:33:18;;;;;;;9.30;3.88;;;;;;;;;;5031546;28;20026;-73
2023/08/11 09:35:44;;;;;;;13.68;5.53;;;;;;;;;;5032454;28;20021;-72
2023/08/11 09:38:10;;;;;;;10.50;4.07;;;;;;;;;;5033953;28;20513;-73
2023/08/11 09:40:36;;;;;;;13.30;3.70;;;;;;;;;;5033414;28;20033;-73
2023/08/11 09:43:02;;;;;;;8.60;3.67;;;;;;;;;;5032604;28;20498;-72
2023/08/11 09:45:30;;;;;;;12.52;4.63;;;;;;;;;;5033379;28;20387;-73
2023/08/11 09:47:56;;;;;;;12.27;4.07;;;;;;;;;;5033186;28;20029;-75
2023/08/11 09:50:26;;;;;;;13.18;4.40;;;;;;;;;;5034021;28;20029;-75
2023/08/11 09:52:52;;;;;;;13.85;4.68;;;;;;;;;;5032316;28;20100;-74
2023/08/11 09:55:19;;;;;;;7.95;3.92;;;;;;;;;;5032758;28;20059;-75
2023/08/11 09:57:45;;;;;;;9.68;4.25;;;;;;;;;;5032739;28;20033;-74
2023/08/11 10:00:12;;;;;;;8.65;3.72;;;;;;;;;;5032327;28;20033;-75
2023/08/11 10:02:41;;;;;;;8.68;4.13;;;;;;;;;;5032210;28;20033;-74
2023/08/11 10:05:08;;;;;;;12.70;4.75;;;;;;;;;;5032507;28;20080;-75
2023/08/11 10:07:37;;;;;;;14.00;6.00;;;;;;;;;;5032622;28;20029;-75
2023/08/11 10:10:07;;;;;;;15.43;4.70;;;;;;;;;;5032947;28;20048;-74
2023/08/11 10:12:33;;;;;;;10.20;4.28;;;;;;;;;;5031903;28;20068;-75
2023/08/11 10:14:59;;;;;;;7.25;3.67;;;;;;;;;;5031449;28;20029;-72
2023/08/11 10:17:26;;;;;;;8.55;3.30;;;;;;;;;;5031105;28;20060;-72
2023/08/11 10:19:52;;;;;;;8.40;3.80;;;;;;;;;;5032241;28;20030;-72
2023/08/11 10:22:18;;;;;;;8.30;3.65;;;;;;;;;;5035418;28;20029;-72
2023/08/11 10:24:46;;;;;;;14.32;4.80;;;;;;;;;;5033292;28;20108;-73
2023/08/11 10:27:13;;;;;;;6.97;3.20;;;;;;;;;;5033574;28;20017;-73
2023/08/11 10:29:39;;;;;;;5.55;3.35;;;;;;;;;;5031622;28;20030;-72
2023/08/11 10:32:05;;;;;;;9.15;3.35;;;;;;;;;;5030982;28;20655;-72
2023/08/11 10:34:33;;;;;;;8.10;3.42;;;;;;;;;;5031286;28;20148;-73
2023/08/11 10:36:59;;;;;;;5.85;3.30;;;;;;;;;;5031237;28;20512;-75
2023/08/11 10:39:26;;;;;;;6.60;2.90;;;;;;;;;;5031405;28;20154;-72
2023/08/11 10:41:52;;;;;;;5.15;2.80;;;;;;;;;;5031847;28;20356;-72
2023/08/11 10:44:18;;;;;;;6.63;2.88;;;;;;;;;;5034763;28;20048;-73
2023/08/11 10:46:45;;;;;;;6.95;3.17;;;;;;;;;;5035023;28;20040;-73
2023/08/11 10:49:14;;;;;;;5.90;3.38;;;;;;;;;;5034868;28;20079;-72
2023/08/11 10:51:41;;;;;;;6.88;3.58;;;;;;;;;;5034708;28;20075;-72
2023/08/11 10:54:08;;;;;;;8.73;2.95;;;;;;;;;;5034198;28;20033;-73
2023/08/11 10:56:35;;;;;;;11.35;3.95;;;;;;;;;;5034618;28;20095;-72
2023/08/11 10:59:14;;;;;;;12.57;2.88;;;;;;;;;;5034677;28;20026;-72
2023/08/11 11:01:41;;;;;;;6.82;2.70;;;;;;;;;;5034572;28;20028;-74
2023/08/11 11:04:08;;;;;;;8.05;3.58;;;;;;;;;;5034193;28;20021;-73
2023/08/11 11:06:35;;;;;;;7.80;3.08;;;;;;;;;;5034366;28;20034;-73
2023/08/11 11:09:01;;;;;;;5.10;2.10;;;;;;;;;;5034861;28;20558;-73
2023/08/11 11:11:27;;;;;;;5.05;1.95;;;;;;;;;;5037419;28;20025;-71
2023/08/11 11:13:53;;;;;;;6.38;1.77;;;;;;;;;;5036077;28;20044;-72
2023/08/11 11:16:20;;;;;;;7.13;1.90;;;;;;;;;;5037563;28;20048;-71
2023/08/11 11:18:47;;;;;;;6.05;1.90;;;;;;;;;;5038251;28;20018;-73
2023/08/11 11:21:13;;;;;;;4.05;1.90;;;;;;;;;;5037876;28;20024;-74
2023/08/11 11:23:44;;;;;;;4.00;2.30;;;;;;;;;;5035412;28;20093;-73
2023/08/11 11:26:09;;;;;;;3.20;1.48;;;;;;;;;;5035060;28;20473;-72
2023/08/11 11:28:35;;;;;;;3.17;1.70;;;;;;;;;;5041581;28;20112;-72
2023/08/11 11:31:01;;;;;;;2.13;1.00;;;;;;;;;;5046127;28;20484;-73
2023/08/11 11:33:28;;;;;;;2.15;0.90;;;;;;;;;;5035232;28;20036;-72
2023/08/11 11:35:54;;;;;;;3.15;1.20;;;;;;;;;;5034175;28;20491;-73
2023/08/11 11:38:22;;;;;;;3.42;1.25;;;;;;;;;;5034099;28;20034;-76
2023/08/11 11:40:49;;;;;;;3.30;1.42;;;;;;;;;;5034252;28;20022;-74
2023/08/11 11:43:15;;;;;;;5.35;1.40;;;;;;;;;;5033658;28;20451;-74
2023/08/11 11:45:41;;;;;;;5.10;2.10;;;;;;;;;;5033975;28;20060;-73
2023/08/11 11:48:07;;;;;;;7.38;1.73;;;;;;;;;;5033862;28;20116;-73
2023/08/11 11:50:34;;;;;;;4.40;1.27;;;;;;;;;;5034491;28;20056;-73
2023/08/11 11:53:00;;;;;;;6.72;1.40;;;;;;;;;;5032908;28;20036;-74
2023/08/11 11:55:27;;;;;;;3.78;1.20;;;;;;;;;;5033256;28;20029;-75
2023/08/11 11:57:53;;;;;;;7.55;3.53;;;;;;;;;;5033637;28;20071;-74
2023/08/11 12:00:20;;;;;;;2.40;1.40;;;;;;;;;;5035322;28;20022;-74
2023/08/11 12:02:47;;;;;;;6.60;1.77;;;;;;;;;;5033253;28;20021;-73
2023/08/11 12:05:13;;;;;;;3.60;1.10;;;;;;;;;;5033568;28;20044;-73
2023/08/11 12:07:40;;;;;;;8.13;1.30;;;;;;;;;;5033713;28;20087;-72
2023/08/11 12:10:06;;;;;;;2.60;1.30;;;;;;;;;;5034687;28;20029;-74
2023/08/11 12:12:33;;;;;;;2.45;1.27;;;;;;;;;;5035852;28;20029;-74
2023/08/11 12:15:05;;;;;;;4.28;1.40;;;;;;;;;;5034701;28;20033;-74
2023/08/11 12:17:32;;;;;;;4.43;1.17;;;;;;;;;;5033210;28;20026;-73
2023/08/11 12:19:58;;;;;;;4.25;1.45;;;;;;;;;;5034715;28;20471;-73
2023/08/11 12:22:24;;;;;;;4.55;1.40;;;;;;;;;;5032977;28;20384;-73
2023/08/11 12:24:50;;;;;;;2.22;1.20;;;;;;;;;;5033096;28;20022;-72
2023/08/11 12:27:16;;;;;;;5.38;1.60;;;;;;;;;;5032889;28;20395;-73
2023/08/11 12:29:42;;;;;;;3.30;1.17;;;;;;;;;;5032947;28;20030;-72
2023/08/11 12:32:08;;;;;;;5.47;1.48;;;;;;;;;;5032668;28;20030;-73
2023/08/11 12:34:34;;;;;;;2.88;1.65;;;;;;;;;;5032751;28;20121;-72
2023/08/11 12:37:00;;;;;;;1.45;1.33;;;;;;;;;;5032549;28;20029;-72
2023/08/11 12:39:29;;;;;;;2.40;1.40;;;;;;;;;;5032712;28;20099;-72
2023/08/11 12:41:54;;;;;;;3.67;1.50;;;;;;;;;;5032703;28;20152;-74
2023/08/11 12:44:20;;;;;;;2.65;1.40;;;;;;;;;;5032434;28;20113;-73
2023/08/11 12:46:46;;;;;;;3.90;1.30;;;;;;;;;;5032522;28;20034;-72
2023/08/11 12:49:12;;;;;;;3.67;1.80;;;;;;;;;;5032573;28;20040;-72
2023/08/11 12:51:38;;;;;;;5.55;1.65;;;;;;;;;;5032261;28;20026;-73
2023/08/11 12:54:05;;;;;;;4.97;1.20;;;;;;;;;;5032282;28;20036;-72
2023/08/11 12:56:31;;;;;;;3.40;1.50;;;;;;;;;;5032249;28;20065;-73
2023/08/11 12:58:57;;;;;;;1.73;1.23;;;;;;;;;;5032373;28;20094;-74
2023/08/11 13:01:23;;;;;;;2.50;1.60;;;;;;;;;;5032613;28;20029;-72
2023/08/11 13:03:51;;;;;;;2.53;1.05;;;;;;;;;;5032029;28;20022;-74
2023/08/11 13:06:17;;;;;;;2.05;1.20;;;;;;;;;;5032131;28;20056;-72
2023/08/11 13:08:43;;;;;;;7.22;1.58;;;;;;;;;;5032316;28;20025;-73
2023/08/11 13:11:09;;;;;;;4.47;1.70;;;;;;;;;;5031046;28;20471;-73
2023/08/11 13:13:35;;;;;;;2.03;1.50;;;;;;;;;;5029086;28;20045;-73
2023/08/11 13:16:01;;;;;;;1.80;1.40;;;;;;;;;;5031833;28;20021;-73
2023/08/11 13:18:27;;;;;;;6.35;1.35;;;;;;;;;;5031817;28;20077;-74
2023/08/11 13:20:53;;;;;;;4.53;1.25;;;;;;;;;;5030267;28;20025;-72
2023/08/11 13:23:19;;;;;;;3.97;1.67;;;;;;;;;;5030532;28;20053;-73
2023/08/11 13:25:45;;;;;;;4.88;1.67;;;;;;;;;;5031697;28;20033;-73
2023/08/11 13:28:11;;;;;;;3.42;1.50;;;;;;;;;;5031708;28;20047;-72
2023/08/11 13:30:37;;;;;;;3.38;1.65;;;;;;;;;;5029797;28;20022;-73
2023/08/11 13:33:04;;;;;;;3.70;1.50;;;;;;;;;;5031067;28;20026;-74
2023/08/11 13:35:30;;;;;;;4.38;1.60;;;;;;;;;;5031804;28;20040;-74
2023/08/11 13:37:56;;;;;;;4.80;1.50;;;;;;;;;;5029932;28;20215;-72
2023/08/11 13:40:23;;;;;;;3.85;1.42;;;;;;;;;;5032216;28;20063;-73
2023/08/11 13:42:49;;;;;;;3.20;1.48;;;;;;;;;;5031206;28;20026;-74
2023/08/11 13:45:15;;;;;;;1.90;1.20;;;;;;;;;;5031103;28;20026;-73
2023/08/11 13:47:41;;;;;;;2.85;1.48;;;;;;;;;;5029425;28;20037;-76
2023/08/11 13:50:07;;;;;;;2.88;1.30;;;;;;;;;;5031515;28;20483;-72
2023/08/11 13:52:34;;;;;;;1.85;1.20;;;;;;;;;;5030969;28;20029;-74
2023/08/11 13:55:00;;;;;;;2.60;1.40;;;;;;;;;;5030913;28;20025;-75
2023/08/11 13:57:27;;;;;;;5.15;1.40;;;;;;;;;;5031165;28;20345;-73
2023/08/11 14:00:00;;;;;;;2.78;1.80;;;;;;;;;;5031280;28;20026;-73
2023/08/11 14:02:26;;;;;;;5.40;2.10;;;;;;;;;;5029930;28;20040;-75
2023/08/11 14:04:53;;;;;;;5.28;1.23;;;;;;;;;;5024976;28;20388;-73
2023/08/11 14:07:19;;;;;;;4.20;1.23;;;;;;;;;;5030788;28;20033;-76
2023/08/11 14:09:45;;;;;;;2.22;1.10;;;;;;;;;;5028802;28;20034;-75
2023/08/11 14:12:11;;;;;;;2.67;1.65;;;;;;;;;;5029821;28;20021;-75
2023/08/11 14:14:37;;;;;;;2.90;1.30;;;;;;;;;;5030963;28;20438;-78
2023/08/11 14:17:04;;;;;;;2.28;1.50;;;;;;;;;;5033050;28;20029;-74
2023/08/11 14:19:30;;;;;;;2.15;1.30;;;;;;;;;;5035150;28;20029;-75
2023/08/11 14:21:56;;;;;;;5.38;1.38;;;;;;;;;;5032545;28;20395;-75
2023/08/11 14:24:22;;;;;;;6.22;1.58;;;;;;;;;;5034745;28;20033;-75
2023/08/11 14:26:48;;;;;;;3.15;1.23;;;;;;;;;;5034516;28;20121;-73
2023/08/11 14:29:14;;;;;;;3.05;1.48;;;;;;;;;;5034648;28;20101;-75
2023/08/11 14:31:40;;;;;;;5.70;1.70;;;;;;;;;;5035183;28;20032;-76